createdAt,value
2023-04-29T00:02:31.209Z,14.00
2023-04-29T00:05:00.530Z,14.50
2023-04-29T00:07:34.716Z,14.80
2023-04-29T00:10:02.765Z,13.80
2023-04-29T00:12:32.097Z,13.50
2023-04-29T00:15:01.022Z,14.40
2023-04-29T00:17:28.964Z,13.10
2023-04-29T00:19:56.968Z,13.00
2023-04-29T00:22:24.910Z,13.30
2023-04-29T00:24:53.311Z,14.30
2023-04-29T00:27:21.129Z,14.50
2023-04-29T00:29:49.227Z,14.20
2023-04-29T00:32:17.361Z,13.70
2023-04-29T00:34:45.344Z,14.20
2023-04-29T00:37:13.246Z,14.40
2023-04-29T00:39:41.090Z,15.00
2023-04-29T00:42:10.064Z,14.30
2023-04-29T00:44:41.900Z,14.90
2023-04-29T00:47:11.675Z,14.40
2023-04-29T00:49:40.691Z,14.40
2023-04-29T00:52:11.690Z,15.00
2023-04-29T00:54:40.407Z,14.90
2023-04-29T00:57:08.338Z,14.60
2023-04-29T00:59:36.496Z,14.40
2023-04-29T01:02:04.933Z,15.30
2023-04-29T01:04:39.022Z,15.20
2023-04-29T01:07:23.579Z,15.70
2023-04-29T01:10:17.756Z,14.60
2023-04-29T01:12:50.763Z,15.00
2023-04-29T01:15:26.955Z,15.60
2023-04-29T01:18:12.253Z,15.60
2023-04-29T01:20:42.201Z,16.40
2023-04-29T01:23:10.036Z,13.50
2023-04-29T01:25:40.839Z,16.00
2023-04-29T01:28:35.001Z,15.80
2023-04-29T01:31:15.525Z,16.00
2023-04-29T01:34:04.972Z,15.60
2023-04-29T01:36:44.325Z,17.50
2023-04-29T01:39:20.761Z,17.50
2023-04-29T01:42:03.324Z,16.40
2023-04-29T01:44:34.073Z,16.80
2023-04-29T01:47:03.470Z,16.30
2023-04-29T01:49:37.671Z,17.10
2023-04-29T01:52:13.640Z,16.80
2023-04-29T01:54:46.198Z,15.60
2023-04-29T01:57:17.968Z,17.10
2023-04-29T02:00:04.772Z,17.00
2023-04-29T02:02:41.697Z,15.40
2023-04-29T02:05:17.265Z,15.60
2023-04-29T02:07:52.670Z,16.70
2023-04-29T02:10:21.090Z,15.70
2023-04-29T02:12:50.425Z,17.40
2023-04-29T02:15:20.320Z,16.30
2023-04-29T02:17:48.373Z,15.00
2023-04-29T02:20:16.672Z,16.40
2023-04-29T02:22:45.076Z,16.90
2023-04-29T02:25:12.995Z,16.70
2023-04-29T02:27:40.840Z,16.90
2023-04-29T02:30:09.381Z,16.20
2023-04-29T02:32:39.389Z,16.40
2023-04-29T02:35:08.606Z,16.30
2023-04-29T02:37:36.481Z,16.50
2023-04-29T02:40:10.063Z,17.60
2023-04-29T02:42:38.462Z,16.80
2023-04-29T02:45:07.507Z,17.00
2023-04-29T02:47:35.468Z,15.50
2023-04-29T02:50:04.854Z,16.70
2023-04-29T02:52:33.253Z,17.40
2023-04-29T02:55:09.113Z,16.80
2023-04-29T02:57:56.926Z,17.30
2023-04-29T03:00:25.456Z,16.00
2023-04-29T03:02:53.439Z,16.60
2023-04-29T03:05:21.534Z,17.20
2023-04-29T03:07:49.752Z,17.40
2023-04-29T03:10:18.959Z,15.70
2023-04-29T03:12:47.807Z,17.70
2023-04-29T03:15:17.226Z,16.50
2023-04-29T03:17:46.666Z,15.90
2023-04-29T03:20:14.836Z,15.30
2023-04-29T03:22:42.738Z,16.50
2023-04-29T03:25:11.596Z,16.00
2023-04-29T03:27:40.194Z,17.60
2023-04-29T03:30:09.134Z,15.80
2023-04-29T03:32:41.290Z,16.70
2023-04-29T03:35:14.153Z,15.80
2023-04-29T03:37:54.134Z,16.30
2023-04-29T03:40:24.744Z,15.90
2023-04-29T03:42:52.694Z,15.70
2023-04-29T03:45:21.446Z,15.70
2023-04-29T03:47:49.617Z,18.00
2023-04-29T03:50:17.633Z,14.20
2023-04-29T03:52:46.273Z,17.40
2023-04-29T03:55:26.833Z,16.40
2023-04-29T03:57:55.323Z,16.10
2023-04-29T04:00:26.663Z,14.70
2023-04-29T04:02:55.024Z,15.70
2023-04-29T04:05:25.401Z,16.20
2023-04-29T04:08:00.893Z,16.10
2023-04-29T04:10:38.017Z,17.80
2023-04-29T04:13:36.608Z,16.60
2023-04-29T04:16:05.059Z,16.90
2023-04-29T04:18:33.141Z,18.60
2023-04-29T04:21:16.552Z,17.90
2023-04-29T04:23:48.325Z,16.00
2023-04-29T04:26:20.724Z,17.80
2023-04-29T04:29:06.196Z,17.80
2023-04-29T04:31:46.789Z,17.10
2023-04-29T04:34:15.883Z,17.80
2023-04-29T04:36:44.543Z,15.00
2023-04-29T04:39:12.388Z,16.90
2023-04-29T04:41:40.378Z,15.40
2023-04-29T04:44:10.984Z,15.90
2023-04-29T04:46:48.768Z,16.90
2023-04-29T04:49:21.357Z,15.90
2023-04-29T04:51:51.838Z,15.90
2023-04-29T04:54:20.100Z,16.40
2023-04-29T04:56:52.396Z,16.50
2023-04-29T04:59:21.665Z,15.00
2023-04-29T05:01:49.806Z,14.10
2023-04-29T05:04:17.976Z,16.80
2023-04-29T05:06:46.862Z,16.90
2023-04-29T05:09:15.834Z,16.10
2023-04-29T05:11:44.153Z,15.20
2023-04-29T05:14:14.693Z,14.50
2023-04-29T05:16:49.905Z,14.40
2023-04-29T05:19:18.001Z,14.80
2023-04-29T05:21:46.350Z,15.50
2023-04-29T05:24:15.533Z,15.80
2023-04-29T05:26:44.327Z,16.70
2023-04-29T05:29:12.426Z,15.90
2023-04-29T05:31:56.121Z,14.00
2023-04-29T05:34:25.581Z,13.50
2023-04-29T05:36:54.005Z,13.90
2023-04-29T05:39:22.970Z,13.80
2023-04-29T05:41:59.209Z,18.70
2023-04-29T05:44:44.519Z,14.00
2023-04-29T05:47:12.454Z,13.30
2023-04-29T05:49:40.884Z,12.20
2023-04-29T05:52:15.996Z,12.60
2023-04-29T05:54:53.449Z,12.50
2023-04-29T05:57:27.492Z,14.20
2023-04-29T06:00:00.398Z,15.10
2023-04-29T06:02:28.740Z,14.00
2023-04-29T06:04:57.197Z,15.30
2023-04-29T06:07:42.689Z,14.20
2023-04-29T06:10:29.419Z,14.60
2023-04-29T06:12:57.590Z,15.70
2023-04-29T06:15:25.614Z,13.10
2023-04-29T06:17:53.737Z,13.50
2023-04-29T06:20:23.732Z,12.90
2023-04-29T06:22:51.815Z,16.00
2023-04-29T06:25:19.891Z,16.20
2023-04-29T06:27:51.730Z,15.10
2023-04-29T06:30:23.146Z,14.60
2023-04-29T06:32:52.132Z,15.40
2023-04-29T06:35:20.747Z,19.40
2023-04-29T06:37:56.760Z,18.20
2023-04-29T06:40:43.781Z,16.90
2023-04-29T06:43:31.052Z,17.00
2023-04-29T06:46:17.622Z,15.20
2023-04-29T06:49:11.076Z,15.80
2023-04-29T06:51:39.340Z,13.70
2023-04-29T06:54:07.539Z,12.90
2023-04-29T06:56:35.850Z,23.50
2023-04-29T06:59:23.939Z,16.60
2023-04-29T07:01:53.597Z,15.30
2023-04-29T07:04:21.760Z,14.80
2023-04-29T07:06:50.041Z,13.20
2023-04-29T07:09:19.458Z,14.40
2023-04-29T07:11:48.354Z,13.70
2023-04-29T07:14:16.427Z,13.20
2023-04-29T07:16:48.288Z,13.10
2023-04-29T07:19:16.287Z,13.50
2023-04-29T07:21:44.417Z,19.70
2023-04-29T07:24:12.343Z,14.10
2023-04-29T07:26:48.207Z,13.30
2023-04-29T07:29:17.968Z,12.20
2023-04-29T07:31:46.126Z,12.10
2023-04-29T07:34:14.256Z,14.50
2023-04-29T07:36:42.134Z,15.10
2023-04-29T07:39:12.579Z,14.90
2023-04-29T07:41:40.997Z,13.60
2023-04-29T07:44:09.009Z,13.00
2023-04-29T07:46:37.942Z,13.10
2023-04-29T07:49:07.113Z,13.20
2023-04-29T07:51:35.012Z,13.00
2023-04-29T07:54:02.989Z,12.80
2023-04-29T07:56:31.515Z,12.20
2023-04-29T07:59:02.585Z,13.20
2023-04-29T08:01:30.657Z,13.20
2023-04-29T08:03:58.712Z,13.60
2023-04-29T08:06:29.125Z,13.80
2023-04-29T08:08:57.100Z,14.00
2023-04-29T08:11:26.322Z,12.40
2023-04-29T08:13:57.216Z,10.20
2023-04-29T08:16:26.452Z,12.40
2023-04-29T08:18:54.637Z,11.50
2023-04-29T08:21:22.582Z,11.20
2023-04-29T08:23:50.540Z,11.00
2023-04-29T08:26:24.736Z,10.40
2023-04-29T08:28:52.792Z,11.40
2023-04-29T08:31:22.390Z,11.10
2023-04-29T08:33:50.405Z,9.70
2023-04-29T08:36:18.346Z,12.30
2023-04-29T08:38:47.161Z,9.80
2023-04-29T08:41:16.978Z,12.50
2023-04-29T08:43:46.049Z,15.00
2023-04-29T08:46:15.390Z,13.70
2023-04-29T08:48:45.549Z,11.70
2023-04-29T08:51:13.977Z,12.00
2023-04-29T08:53:42.096Z,12.30
2023-04-29T08:56:18.050Z,11.60
2023-04-29T08:58:47.137Z,11.10
2023-04-29T09:01:15.487Z,12.30
2023-04-29T09:04:15.055Z,14.30
2023-04-29T09:06:43.892Z,10.80
2023-04-29T09:09:14.730Z,10.40
2023-04-29T09:11:42.711Z,11.40
2023-04-29T09:14:10.562Z,12.20
2023-04-29T09:16:39.112Z,16.00
2023-04-29T09:19:07.427Z,13.40
2023-04-29T09:21:35.625Z,14.70
2023-04-29T09:24:04.108Z,10.30
2023-04-29T09:26:48.526Z,11.50
2023-04-29T09:29:18.452Z,11.30
2023-04-29T09:31:47.220Z,10.60
2023-04-29T09:34:41.078Z,10.10
2023-04-29T09:37:30.984Z,11.70
2023-04-29T09:39:58.924Z,10.40
2023-04-29T09:42:26.786Z,9.60
2023-04-29T09:44:54.767Z,10.10
2023-04-29T09:47:31.934Z,8.60
2023-04-29T09:50:13.911Z,10.40
2023-04-29T09:52:42.624Z,9.30
2023-04-29T09:55:11.578Z,9.00
2023-04-29T09:57:45.227Z,8.90
2023-04-29T10:00:15.168Z,11.70
2023-04-29T10:02:46.774Z,21.60
2023-04-29T10:05:20.160Z,10.60
2023-04-29T10:07:50.312Z,9.80
2023-04-29T10:10:19.021Z,9.30
2023-04-29T10:12:47.185Z,9.60
2023-04-29T10:15:38.822Z,8.90
2023-04-29T10:18:26.473Z,8.70
2023-04-29T10:21:00.169Z,35.20
2023-04-29T10:23:31.184Z,13.10
2023-04-29T10:26:01.120Z,9.20
2023-04-29T10:28:32.797Z,8.20
2023-04-29T10:31:05.283Z,7.90
2023-04-29T10:33:34.336Z,8.90
2023-04-29T10:36:03.680Z,8.90
2023-04-29T10:38:37.424Z,9.60
2023-04-29T10:41:14.715Z,10.30
2023-04-29T10:43:43.558Z,8.50
2023-04-29T10:46:17.610Z,8.30
2023-04-29T10:48:50.067Z,8.30
2023-04-29T10:51:32.864Z,11.10
2023-04-29T10:54:14.182Z,8.20
2023-04-29T10:57:24.410Z,9.00
2023-04-29T10:59:54.046Z,7.50
2023-04-29T11:02:22.383Z,7.80
2023-04-29T11:05:10.780Z,9.60
2023-04-29T11:07:38.681Z,8.20
2023-04-29T11:10:07.424Z,7.70
2023-04-29T11:12:35.578Z,8.00
2023-04-29T11:15:05.114Z,7.90
2023-04-29T11:17:41.417Z,6.80
2023-04-29T11:20:13.796Z,6.90
2023-04-29T11:22:51.068Z,8.70
2023-04-29T11:25:18.969Z,7.60
2023-04-29T11:27:49.425Z,8.00
2023-04-29T11:30:20.142Z,10.40
2023-04-29T11:32:50.589Z,6.30
2023-04-29T11:35:20.486Z,6.00
2023-04-29T11:37:54.909Z,7.10
2023-04-29T11:40:23.038Z,6.20
2023-04-29T11:42:51.473Z,6.30
2023-04-29T11:45:20.396Z,6.80
2023-04-29T11:47:49.257Z,8.20
2023-04-29T11:50:25.078Z,6.40
2023-04-29T11:52:57.283Z,5.60
2023-04-29T11:55:25.992Z,5.40
2023-04-29T11:57:54.197Z,5.80
2023-04-29T12:00:22.231Z,6.30
2023-04-29T12:02:50.627Z,6.70
2023-04-29T12:05:19.779Z,6.30
2023-04-29T12:07:55.249Z,5.40
2023-04-29T12:10:23.215Z,6.60
2023-04-29T12:12:51.431Z,7.10
2023-04-29T12:15:23.245Z,7.30
2023-04-29T12:17:51.569Z,8.50
2023-04-29T12:20:20.774Z,6.70
2023-04-29T12:22:49.184Z,6.10
2023-04-29T12:25:18.382Z,6.10
2023-04-29T12:27:46.560Z,6.40
2023-04-29T12:30:15.186Z,7.10
2023-04-29T12:32:43.319Z,6.60
2023-04-29T12:35:17.104Z,7.00
2023-04-29T12:37:49.573Z,6.30
2023-04-29T12:40:17.925Z,5.50
2023-04-29T12:42:46.798Z,5.80
2023-04-29T12:45:32.829Z,6.10
2023-04-29T12:48:03.171Z,5.90
2023-04-29T12:50:39.509Z,6.00
2023-04-29T12:53:08.897Z,5.90
2023-04-29T12:55:38.677Z,5.80
2023-04-29T12:58:07.552Z,6.60
2023-04-29T13:00:37.467Z,6.40
2023-04-29T13:03:06.041Z,5.90
2023-04-29T13:05:34.278Z,6.30
2023-04-29T13:08:04.662Z,6.60
2023-04-29T13:10:33.311Z,6.00
2023-04-29T13:13:05.045Z,7.20
2023-04-29T13:15:35.859Z,7.60
2023-04-29T13:18:04.384Z,7.10
2023-04-29T13:20:40.829Z,7.40
2023-04-29T13:23:14.601Z,6.30
2023-04-29T13:25:42.689Z,6.70
2023-04-29T13:28:17.765Z,7.10
2023-04-29T13:30:46.313Z,6.50
2023-04-29T13:33:14.529Z,7.20
2023-04-29T13:35:45.086Z,6.80
2023-04-29T13:38:13.082Z,6.50
2023-04-29T13:40:46.049Z,6.70
2023-04-29T13:43:19.886Z,8.70
2023-04-29T13:45:53.188Z,7.80
2023-04-29T13:49:00.875Z,7.80
2023-04-29T13:51:34.460Z,8.60
2023-04-29T13:54:48.388Z,8.50
2023-04-29T13:59:39.359Z,8.50
2023-04-29T14:02:24.297Z,8.40
2023-04-29T14:04:54.404Z,7.80
2023-04-29T14:07:23.438Z,7.10
2023-04-29T14:09:51.992Z,7.40
2023-04-29T14:12:20.190Z,7.30
2023-04-29T14:14:48.280Z,8.10
2023-04-29T14:17:16.226Z,7.50
2023-04-29T14:19:45.799Z,8.30
2023-04-29T14:22:13.780Z,7.90
2023-04-29T14:24:41.897Z,8.60
2023-04-29T14:27:09.956Z,8.10
2023-04-29T14:29:50.708Z,10.90
2023-04-29T14:32:18.604Z,9.60
2023-04-29T14:34:46.589Z,8.50
2023-04-29T14:37:14.449Z,8.40
2023-04-29T14:39:42.413Z,7.40
2023-04-29T14:42:10.744Z,12.00
2023-04-29T14:44:38.624Z,7.50
2023-04-29T14:47:06.538Z,6.70
2023-04-29T14:49:34.468Z,7.10
2023-04-29T14:52:02.681Z,6.80
2023-04-29T14:54:31.247Z,5.70
2023-04-29T14:56:59.505Z,6.10
2023-04-29T14:59:30.088Z,6.80
2023-04-29T15:01:57.979Z,6.10
2023-04-29T15:04:25.823Z,5.30
2023-04-29T15:06:53.860Z,6.40
2023-04-29T15:09:22.240Z,6.70
2023-04-29T15:11:52.979Z,7.40
2023-04-29T15:14:21.005Z,6.60
2023-04-29T15:16:51.140Z,6.30
2023-04-29T15:19:20.350Z,5.50
2023-04-29T15:21:48.325Z,6.80
2023-04-29T15:24:17.289Z,5.60
2023-04-29T15:26:50.537Z,7.10
2023-04-29T15:29:18.322Z,7.70
2023-04-29T15:31:46.602Z,6.60
2023-04-29T15:34:15.030Z,6.20
2023-04-29T15:36:42.996Z,5.80
2023-04-29T15:39:11.195Z,5.50
2023-04-29T15:41:39.225Z,6.00
2023-04-29T15:44:07.176Z,5.50
2023-04-29T15:46:35.354Z,5.90
2023-04-29T15:49:09.261Z,5.30
2023-04-29T15:51:37.505Z,5.10
2023-04-29T15:54:05.607Z,6.20
2023-04-29T15:56:36.237Z,6.50
2023-04-29T15:59:04.193Z,6.00
2023-04-29T16:01:33.687Z,12.40
2023-04-29T16:04:03.542Z,6.00
2023-04-29T16:06:33.038Z,6.80
2023-04-29T16:09:01.654Z,6.40
2023-04-29T16:11:32.679Z,6.90
2023-04-29T16:14:00.560Z,6.70
2023-04-29T16:16:28.483Z,6.10
2023-04-29T16:18:57.349Z,6.40
2023-04-29T16:21:25.974Z,5.60
2023-04-29T16:23:53.944Z,6.20
2023-04-29T16:26:22.110Z,6.10
2023-04-29T16:28:53.188Z,5.50
2023-04-29T16:31:21.104Z,5.80
2023-04-29T16:33:49.447Z,5.90
2023-04-29T16:36:17.833Z,5.90
2023-04-29T16:38:49.102Z,6.10
2023-04-29T16:41:24.106Z,6.00
2023-04-29T16:43:58.883Z,8.20
2023-04-29T16:46:33.599Z,8.50
2023-04-29T16:49:07.128Z,7.20
2023-04-29T16:51:35.043Z,7.80
2023-04-29T16:54:03.104Z,6.50
2023-04-29T16:56:31.158Z,6.60
2023-04-29T16:58:59.210Z,5.80
2023-04-29T17:01:28.115Z,5.80
2023-04-29T17:03:56.299Z,5.30
2023-04-29T17:06:24.349Z,5.90
2023-04-29T17:08:54.705Z,6.30
2023-04-29T17:11:22.808Z,6.40
2023-04-29T17:13:50.983Z,5.30
2023-04-29T17:16:19.261Z,5.30
2023-04-29T17:18:47.354Z,6.00
2023-04-29T17:21:15.522Z,5.40
2023-04-29T17:23:50.434Z,6.20
2023-04-29T17:26:18.334Z,6.40
2023-04-29T17:28:46.173Z,5.90
2023-04-29T17:31:15.429Z,7.70
2023-04-29T17:33:54.871Z,8.10
2023-04-29T17:36:22.871Z,8.30
2023-04-29T17:38:51.007Z,7.90
2023-04-29T17:41:18.721Z,7.40
2023-04-29T17:43:47.367Z,7.10
2023-04-29T17:46:15.513Z,8.30
2023-04-29T17:48:43.814Z,6.90
2023-04-29T17:51:14.323Z,7.30
2023-04-29T17:53:42.585Z,8.90
2023-04-29T17:56:10.811Z,8.50
2023-04-29T17:58:38.958Z,8.00
2023-04-29T18:01:07.087Z,9.30
2023-04-29T18:03:35.196Z,9.70
2023-04-29T18:06:03.606Z,9.00
2023-04-29T18:08:38.361Z,8.10
2023-04-29T18:11:07.857Z,8.90
2023-04-29T18:13:35.831Z,8.70
2023-04-29T18:16:05.205Z,9.10
2023-04-29T18:18:33.393Z,10.80
2023-04-29T18:21:03.623Z,11.70
2023-04-29T18:23:31.720Z,13.40
2023-04-29T18:25:59.858Z,14.00
2023-04-29T18:28:29.624Z,14.40
2023-04-29T18:30:57.728Z,15.90
2023-04-29T18:33:26.782Z,15.10
2023-04-29T18:35:54.776Z,16.30
2023-04-29T18:38:23.445Z,17.40
2023-04-29T18:40:51.588Z,16.00
2023-04-29T18:43:28.555Z,15.10
2023-04-29T18:46:05.023Z,12.70
2023-04-29T18:48:34.430Z,14.30
2023-04-29T18:51:04.462Z,14.90
2023-04-29T18:53:32.688Z,15.30
2023-04-29T18:56:00.876Z,13.40
2023-04-29T18:58:29.261Z,13.00
2023-04-29T19:01:04.438Z,14.80
2023-04-29T19:03:32.486Z,12.80
2023-04-29T19:06:01.075Z,12.70
2023-04-29T19:08:29.090Z,13.70
2023-04-29T19:10:58.674Z,15.10
2023-04-29T19:13:29.479Z,13.90
2023-04-29T19:15:57.595Z,13.80
2023-04-29T19:18:25.990Z,12.80
2023-04-29T19:20:56.198Z,12.70
2023-04-29T19:23:24.691Z,11.50
2023-04-29T19:25:52.824Z,12.10
2023-04-29T19:28:20.878Z,13.30
2023-04-29T19:30:48.926Z,13.10
2023-04-29T19:33:17.418Z,12.80
2023-04-29T19:35:45.920Z,15.00
2023-04-29T19:38:15.388Z,16.40
2023-04-29T19:40:43.446Z,14.80
2023-04-29T19:43:18.543Z,15.00
2023-04-29T19:45:46.774Z,13.90
2023-04-29T19:48:15.568Z,14.40
2023-04-29T19:50:43.735Z,12.10
2023-04-29T19:53:11.791Z,12.20
2023-04-29T19:55:40.251Z,11.30
2023-04-29T19:58:08.536Z,12.40
2023-04-29T20:00:37.055Z,11.80
2023-04-29T20:03:05.166Z,12.70
2023-04-29T20:05:34.193Z,12.20
2023-04-29T20:08:09.143Z,14.00
2023-04-29T20:10:57.053Z,13.70
2023-04-29T20:13:25.035Z,12.90
2023-04-29T20:15:55.783Z,15.10
2023-04-29T20:18:23.636Z,14.30
2023-04-29T20:20:51.870Z,14.30
2023-04-29T20:23:20.138Z,15.30
2023-04-29T20:26:08.121Z,14.10
2023-04-29T20:28:36.222Z,15.00
2023-04-29T20:31:04.589Z,14.30
2023-04-29T20:33:32.798Z,17.30
2023-04-29T20:36:06.461Z,17.30
2023-04-29T20:38:37.651Z,19.80
2023-04-29T20:41:08.492Z,19.70
2023-04-29T20:43:36.496Z,19.10
2023-04-29T20:46:05.038Z,22.30
2023-04-29T20:48:33.917Z,21.00
2023-04-29T20:51:02.162Z,20.30
2023-04-29T20:53:31.379Z,18.30
2023-04-29T20:55:59.877Z,17.40
2023-04-29T20:58:27.971Z,18.00
2023-04-29T21:00:56.507Z,17.60
2023-04-29T21:03:26.083Z,17.80
2023-04-29T21:05:55.539Z,19.50
2023-04-29T21:08:24.266Z,22.10
2023-04-29T21:10:52.520Z,20.40
2023-04-29T21:13:20.539Z,18.00
2023-04-29T21:15:48.575Z,20.40
2023-04-29T21:18:17.324Z,20.50
2023-04-29T21:20:45.805Z,19.10
2023-04-29T21:23:13.847Z,23.00
2023-04-29T21:25:41.884Z,19.40
2023-04-29T21:28:10.786Z,24.00
2023-04-29T21:30:43.327Z,21.80
2023-04-29T21:33:17.888Z,21.60
2023-04-29T21:37:09.501Z,23.10
2023-04-29T21:39:51.140Z,23.30
2023-04-29T21:42:31.441Z,22.80
2023-04-29T21:45:08.401Z,21.80
2023-04-29T21:47:37.000Z,20.70
2023-04-29T21:50:09.835Z,20.30
2023-04-29T21:52:41.223Z,20.50
2023-04-29T21:55:11.463Z,22.20
2023-04-29T21:57:44.104Z,23.80
2023-04-29T22:00:32.694Z,23.70
2023-04-29T22:03:01.807Z,21.50
2023-04-29T22:05:49.959Z,20.00
2023-04-29T22:08:18.367Z,25.00
2023-04-29T22:10:46.658Z,23.00
2023-04-29T22:13:14.721Z,22.30
2023-04-29T22:15:43.643Z,21.10
2023-04-29T22:18:11.471Z,22.00
2023-04-29T22:20:39.806Z,20.40
2023-04-29T22:23:07.822Z,23.30
2023-04-29T22:26:21.820Z,23.30
2023-04-29T22:28:49.773Z,23.80
2023-04-29T22:31:17.629Z,23.50
2023-04-29T22:33:56.216Z,22.40
2023-04-29T22:36:28.112Z,21.60
2023-04-29T22:38:56.019Z,22.20
2023-04-29T22:41:23.961Z,21.80
2023-04-29T22:43:57.743Z,22.50
2023-04-29T22:46:26.362Z,21.50
2023-04-29T22:49:00.836Z,20.50
2023-04-29T22:51:28.864Z,23.40
2023-04-29T22:54:00.008Z,20.40
2023-04-29T22:56:28.982Z,23.70
2023-04-29T22:58:56.877Z,20.70
2023-04-29T23:01:25.075Z,21.10
2023-04-29T23:03:53.047Z,22.10
2023-04-29T23:06:21.473Z,20.20
2023-04-29T23:08:49.441Z,22.30
2023-04-29T23:11:17.212Z,22.00
2023-04-29T23:13:45.135Z,21.90
2023-04-29T23:16:13.190Z,23.00
2023-04-29T23:18:41.199Z,24.30
2023-04-29T23:21:10.214Z,25.10
2023-04-29T23:23:42.301Z,22.80
2023-04-29T23:26:10.376Z,18.60
2023-04-29T23:28:38.147Z,22.80
2023-04-29T23:31:06.144Z,22.80
2023-04-29T23:33:33.943Z,20.70
2023-04-29T23:36:01.808Z,20.60
2023-04-29T23:38:29.585Z,21.50
2023-04-29T23:40:57.445Z,20.30
2023-04-29T23:43:25.457Z,19.90
2023-04-29T23:45:53.435Z,21.60
2023-04-29T23:48:21.401Z,23.50
2023-04-29T23:50:55.892Z,24.20
2023-04-29T23:53:23.810Z,24.10
2023-04-29T23:55:51.638Z,22.80
2023-04-29T23:58:19.837Z,23.90
